sensor_id;sensor_type;location;lat;lon;timestamp;P1;durP1;ratioP1;P2;durP2;ratioP2
75542;SDS011;64129;53.508;10.476;2023-09-08T00:02:24;6.18;;;5.55;;
75542;SDS011;64129;53.508;10.476;2023-09-08T00:04:51;6.22;;;5.53;;
75542;SDS011;64129;53.508;10.476;2023-09-08T00:07:18;6.35;;;5.75;;
75542;SDS011;64129;53.508;10.476;2023-09-08T00:09:45;5.82;;;4.85;;
75542;SDS011;64129;53.508;10.476;2023-09-08T00:12:12;7.47;;;5.05;;
75542;SDS011;64129;53.508;10.476;2023-09-08T00:14:39;7.63;;;5.88;;
75542;SDS011;64129;53.508;10.476;2023-09-08T00:17:06;6.25;;;5.65;;
75542;SDS011;64129;53.508;10.476;2023-09-08T00:19:33;7.03;;;5.93;;
75542;SDS011;64129;53.508;10.476;2023-09-08T00:21:59;7.82;;;6.65;;
75542;SDS011;64129;53.508;10.476;2023-09-08T00:24:27;7.05;;;6.35;;
75542;SDS011;64129;53.508;10.476;2023-09-08T00:26:53;7.38;;;6.30;;
75542;SDS011;64129;53.508;10.476;2023-09-08T00:29:20;8.45;;;6.60;;
75542;SDS011;64129;53.508;10.476;2023-09-08T00:31:47;7.38;;;6.68;;
75542;SDS011;64129;53.508;10.476;2023-09-08T00:34:14;6.15;;;5.55;;
75542;SDS011;64129;53.508;10.476;2023-09-08T00:36:41;6.55;;;5.55;;
75542;SDS011;64129;53.508;10.476;2023-09-08T00:39:08;8.13;;;5.60;;
75542;SDS011;64129;53.508;10.476;2023-09-08T00:41:35;6.72;;;5.53;;
75542;SDS011;64129;53.508;10.476;2023-09-08T00:44:02;7.68;;;6.95;;
75542;SDS011;64129;53.508;10.476;2023-09-08T00:46:29;7.03;;;6.32;;
75542;SDS011;64129;53.508;10.476;2023-09-08T00:48:57;7.45;;;6.32;;
75542;SDS011;64129;53.508;10.476;2023-09-08T00:51:24;7.57;;;6.00;;
75542;SDS011;64129;53.508;10.476;2023-09-08T00:53:51;6.75;;;6.00;;
75542;SDS011;64129;53.508;10.476;2023-09-08T00:56:18;6.93;;;6.03;;
75542;SDS011;64129;53.508;10.476;2023-09-08T00:58:45;6.35;;;5.57;;
75542;SDS011;64129;53.508;10.476;2023-09-08T01:01:12;7.53;;;6.55;;
75542;SDS011;64129;53.508;10.476;2023-09-08T01:03:39;7.07;;;6.15;;
75542;SDS011;64129;53.508;10.476;2023-09-08T01:06:06;6.78;;;6.05;;
75542;SDS011;64129;53.508;10.476;2023-09-08T01:08:34;7.05;;;6.32;;
75542;SDS011;64129;53.508;10.476;2023-09-08T01:11:02;7.20;;;6.45;;
75542;SDS011;64129;53.508;10.476;2023-09-08T01:13:29;6.63;;;6.03;;
75542;SDS011;64129;53.508;10.476;2023-09-08T01:15:56;7.00;;;5.90;;
75542;SDS011;64129;53.508;10.476;2023-09-08T01:18:23;6.88;;;6.07;;
75542;SDS011;64129;53.508;10.476;2023-09-08T01:26:40;6.78;;;6.07;;
75542;SDS011;64129;53.508;10.476;2023-09-08T01:29:09;7.20;;;6.50;;
75542;SDS011;64129;53.508;10.476;2023-09-08T01:31:37;6.65;;;5.97;;
75542;SDS011;64129;53.508;10.476;2023-09-08T01:34:05;6.88;;;6.28;;
75542;SDS011;64129;53.508;10.476;2023-09-08T01:36:36;8.30;;;7.03;;
75542;SDS011;64129;53.508;10.476;2023-09-08T01:39:03;8.55;;;6.57;;
75542;SDS011;64129;53.508;10.476;2023-09-08T01:41:30;8.77;;;7.30;;
75542;SDS011;64129;53.508;10.476;2023-09-08T01:43:59;8.82;;;6.95;;
75542;SDS011;64129;53.508;10.476;2023-09-08T01:46:26;7.65;;;6.82;;
75542;SDS011;64129;53.508;10.476;2023-09-08T01:48:53;9.95;;;6.55;;
75542;SDS011;64129;53.508;10.476;2023-09-08T01:51:19;7.30;;;6.47;;
75542;SDS011;64129;53.508;10.476;2023-09-08T01:53:46;8.90;;;6.75;;
75542;SDS011;64129;53.508;10.476;2023-09-08T01:56:13;7.60;;;6.80;;
75542;SDS011;64129;53.508;10.476;2023-09-08T01:58:40;7.70;;;6.32;;
75542;SDS011;64129;53.508;10.476;2023-09-08T02:01:07;8.15;;;6.65;;
75542;SDS011;64129;53.508;10.476;2023-09-08T02:03:34;8.57;;;7.35;;
75542;SDS011;64129;53.508;10.476;2023-09-08T02:06:01;8.15;;;6.82;;
75542;SDS011;64129;53.508;10.476;2023-09-08T02:08:27;7.75;;;6.93;;
75542;SDS011;64129;53.508;10.476;2023-09-08T02:10:54;7.45;;;6.47;;
75542;SDS011;64129;53.508;10.476;2023-09-08T02:13:21;8.35;;;7.55;;
75542;SDS011;64129;53.508;10.476;2023-09-08T02:15:48;8.30;;;7.20;;
75542;SDS011;64129;53.508;10.476;2023-09-08T02:18:15;7.70;;;6.88;;
75542;SDS011;64129;53.508;10.476;2023-09-08T02:20:42;7.70;;;6.90;;
75542;SDS011;64129;53.508;10.476;2023-09-08T02:23:09;7.60;;;6.80;;
75542;SDS011;64129;53.508;10.476;2023-09-08T02:25:35;6.82;;;6.20;;
75542;SDS011;64129;53.508;10.476;2023-09-08T02:28:03;7.82;;;6.90;;
75542;SDS011;64129;53.508;10.476;2023-09-08T02:30:30;10.18;;;6.82;;
75542;SDS011;64129;53.508;10.476;2023-09-08T02:32:58;6.97;;;6.38;;
75542;SDS011;64129;53.508;10.476;2023-09-08T02:35:25;8.73;;;6.80;;
75542;SDS011;64129;53.508;10.476;2023-09-08T02:37:54;7.18;;;6.47;;
75542;SDS011;64129;53.508;10.476;2023-09-08T02:40:21;8.10;;;6.78;;
75542;SDS011;64129;53.508;10.476;2023-09-08T02:42:49;8.70;;;6.68;;
75542;SDS011;64129;53.508;10.476;2023-09-08T02:45:16;7.85;;;7.00;;
75542;SDS011;64129;53.508;10.476;2023-09-08T02:47:42;9.00;;;7.47;;
75542;SDS011;64129;53.508;10.476;2023-09-08T02:50:09;9.35;;;8.02;;
75542;SDS011;64129;53.508;10.476;2023-09-08T02:52:36;8.40;;;7.18;;
75542;SDS011;64129;53.508;10.476;2023-09-08T02:55:03;8.73;;;7.93;;
75542;SDS011;64129;53.508;10.476;2023-09-08T02:57:30;9.25;;;6.70;;
75542;SDS011;64129;53.508;10.476;2023-09-08T02:59:57;8.38;;;7.03;;
75542;SDS011;64129;53.508;10.476;2023-09-08T03:02:24;8.88;;;7.53;;
75542;SDS011;64129;53.508;10.476;2023-09-08T03:04:52;8.45;;;6.95;;
75542;SDS011;64129;53.508;10.476;2023-09-08T03:07:19;7.57;;;6.60;;
75542;SDS011;64129;53.508;10.476;2023-09-08T03:09:47;7.70;;;6.85;;
75542;SDS011;64129;53.508;10.476;2023-09-08T03:12:14;7.35;;;6.65;;
75542;SDS011;64129;53.508;10.476;2023-09-08T03:14:41;10.60;;;6.97;;
75542;SDS011;64129;53.508;10.476;2023-09-08T03:17:07;7.80;;;7.00;;
75542;SDS011;64129;53.508;10.476;2023-09-08T03:19:34;8.30;;;7.43;;
75542;SDS011;64129;53.508;10.476;2023-09-08T03:22:01;8.23;;;7.43;;
75542;SDS011;64129;53.508;10.476;2023-09-08T03:24:28;9.52;;;7.53;;
75542;SDS011;64129;53.508;10.476;2023-09-08T03:26:55;8.55;;;7.65;;
75542;SDS011;64129;53.508;10.476;2023-09-08T03:29:23;10.52;;;7.60;;
75542;SDS011;64129;53.508;10.476;2023-09-08T03:31:50;8.60;;;7.70;;
75542;SDS011;64129;53.508;10.476;2023-09-08T03:34:17;8.85;;;7.28;;
75542;SDS011;64129;53.508;10.476;2023-09-08T03:36:47;8.15;;;7.20;;
75542;SDS011;64129;53.508;10.476;2023-09-08T03:39:15;10.35;;;6.95;;
75542;SDS011;64129;53.508;10.476;2023-09-08T03:41:42;10.90;;;7.82;;
75542;SDS011;64129;53.508;10.476;2023-09-08T03:44:09;9.90;;;7.90;;
75542;SDS011;64129;53.508;10.476;2023-09-08T03:46:36;10.52;;;8.73;;
75542;SDS011;64129;53.508;10.476;2023-09-08T03:49:03;9.75;;;7.32;;
75542;SDS011;64129;53.508;10.476;2023-09-08T03:51:30;8.27;;;7.40;;
75542;SDS011;64129;53.508;10.476;2023-09-08T03:53:57;8.20;;;7.32;;
75542;SDS011;64129;53.508;10.476;2023-09-08T03:56:23;11.32;;;8.13;;
75542;SDS011;64129;53.508;10.476;2023-09-08T03:58:51;8.65;;;7.60;;
75542;SDS011;64129;53.508;10.476;2023-09-08T04:01:18;10.90;;;8.43;;
75542;SDS011;64129;53.508;10.476;2023-09-08T04:03:45;9.00;;;8.10;;
75542;SDS011;64129;53.508;10.476;2023-09-08T04:06:12;9.52;;;8.52;;
75542;SDS011;64129;53.508;10.476;2023-09-08T04:08:39;8.88;;;7.70;;
75542;SDS011;64129;53.508;10.476;2023-09-08T04:11:05;9.65;;;8.23;;
75542;SDS011;64129;53.508;10.476;2023-09-08T04:13:32;9.02;;;7.82;;
75542;SDS011;64129;53.508;10.476;2023-09-08T04:15:59;10.15;;;9.18;;
75542;SDS011;64129;53.508;10.476;2023-09-08T04:18:26;9.52;;;7.50;;
75542;SDS011;64129;53.508;10.476;2023-09-08T04:20:53;9.18;;;8.27;;
75542;SDS011;64129;53.508;10.476;2023-09-08T04:23:20;8.38;;;7.45;;
75542;SDS011;64129;53.508;10.476;2023-09-08T04:25:47;8.85;;;7.88;;
75542;SDS011;64129;53.508;10.476;2023-09-08T04:28:14;10.50;;;8.25;;
75542;SDS011;64129;53.508;10.476;2023-09-08T04:30:41;9.55;;;8.32;;
75542;SDS011;64129;53.508;10.476;2023-09-08T04:33:08;9.38;;;8.15;;
75542;SDS011;64129;53.508;10.476;2023-09-08T04:35:35;9.15;;;8.02;;
75542;SDS011;64129;53.508;10.476;2023-09-08T04:38:02;11.00;;;7.75;;
75542;SDS011;64129;53.508;10.476;2023-09-08T04:40:30;12.70;;;8.55;;
75542;SDS011;64129;53.508;10.476;2023-09-08T04:42:56;9.57;;;8.57;;
75542;SDS011;64129;53.508;10.476;2023-09-08T04:45:23;9.30;;;8.10;;
75542;SDS011;64129;53.508;10.476;2023-09-08T04:47:50;11.43;;;8.55;;
75542;SDS011;64129;53.508;10.476;2023-09-08T04:50:18;11.50;;;9.95;;
75542;SDS011;64129;53.508;10.476;2023-09-08T04:52:45;11.57;;;8.90;;
75542;SDS011;64129;53.508;10.476;2023-09-08T04:55:12;11.50;;;8.23;;
75542;SDS011;64129;53.508;10.476;2023-09-08T04:57:40;8.73;;;7.82;;
75542;SDS011;64129;53.508;10.476;2023-09-08T05:00:07;10.75;;;9.65;;
75542;SDS011;64129;53.508;10.476;2023-09-08T05:02:34;9.85;;;8.00;;
75542;SDS011;64129;53.508;10.476;2023-09-08T05:05:02;11.30;;;8.40;;
75542;SDS011;64129;53.508;10.476;2023-09-08T05:07:30;9.38;;;8.40;;
75542;SDS011;64129;53.508;10.476;2023-09-08T05:09:57;11.15;;;9.18;;
75542;SDS011;64129;53.508;10.476;2023-09-08T05:12:28;13.80;;;8.07;;
75542;SDS011;64129;53.508;10.476;2023-09-08T05:14:55;9.60;;;7.82;;
75542;SDS011;64129;53.508;10.476;2023-09-08T05:17:26;10.02;;;8.18;;
75542;SDS011;64129;53.508;10.476;2023-09-08T05:19:53;9.98;;;8.88;;
75542;SDS011;64129;53.508;10.476;2023-09-08T05:22:20;10.25;;;8.52;;
75542;SDS011;64129;53.508;10.476;2023-09-08T05:27:15;11.77;;;9.48;;
75542;SDS011;64129;53.508;10.476;2023-09-08T05:29:41;11.27;;;8.25;;
75542;SDS011;64129;53.508;10.476;2023-09-08T05:32:08;11.07;;;9.40;;
75542;SDS011;64129;53.508;10.476;2023-09-08T05:34:37;10.15;;;8.63;;
75542;SDS011;64129;53.508;10.476;2023-09-08T05:37:04;17.77;;;8.75;;
75542;SDS011;64129;53.508;10.476;2023-09-08T05:39:31;9.48;;;8.48;;
75542;SDS011;64129;53.508;10.476;2023-09-08T05:41:59;9.80;;;8.80;;
75542;SDS011;64129;53.508;10.476;2023-09-08T05:44:25;9.05;;;8.15;;
75542;SDS011;64129;53.508;10.476;2023-09-08T05:46:53;8.80;;;8.00;;
75542;SDS011;64129;53.508;10.476;2023-09-08T05:49:21;11.70;;;8.73;;
75542;SDS011;64129;53.508;10.476;2023-09-08T05:51:48;10.43;;;8.75;;
75542;SDS011;64129;53.508;10.476;2023-09-08T05:54:16;10.02;;;8.95;;
75542;SDS011;64129;53.508;10.476;2023-09-08T05:56:43;11.75;;;8.48;;
75542;SDS011;64129;53.508;10.476;2023-09-08T05:59:11;8.73;;;7.85;;
75542;SDS011;64129;53.508;10.476;2023-09-08T06:01:38;11.27;;;8.85;;
75542;SDS011;64129;53.508;10.476;2023-09-08T06:04:07;10.93;;;8.55;;
75542;SDS011;64129;53.508;10.476;2023-09-08T06:06:36;9.88;;;8.88;;
75542;SDS011;64129;53.508;10.476;2023-09-08T06:09:04;9.95;;;8.23;;
75542;SDS011;64129;53.508;10.476;2023-09-08T06:11:32;9.68;;;7.30;;
75542;SDS011;64129;53.508;10.476;2023-09-08T06:13:59;10.93;;;8.40;;
75542;SDS011;64129;53.508;10.476;2023-09-08T06:16:32;10.82;;;8.23;;
75542;SDS011;64129;53.508;10.476;2023-09-08T06:18:58;11.10;;;8.38;;
75542;SDS011;64129;53.508;10.476;2023-09-08T06:21:26;10.10;;;8.50;;
75542;SDS011;64129;53.508;10.476;2023-09-08T06:23:53;9.27;;;8.30;;
75542;SDS011;64129;53.508;10.476;2023-09-08T06:26:20;10.10;;;8.95;;
75542;SDS011;64129;53.508;10.476;2023-09-08T06:28:47;9.73;;;8.73;;
75542;SDS011;64129;53.508;10.476;2023-09-08T06:31:14;10.38;;;8.77;;
75542;SDS011;64129;53.508;10.476;2023-09-08T06:33:42;9.57;;;8.13;;
75542;SDS011;64129;53.508;10.476;2023-09-08T06:36:09;9.82;;;8.40;;
75542;SDS011;64129;53.508;10.476;2023-09-08T06:38:36;11.20;;;8.18;;
75542;SDS011;64129;53.508;10.476;2023-09-08T06:41:12;9.68;;;8.55;;
75542;SDS011;64129;53.508;10.476;2023-09-08T06:43:41;9.95;;;8.95;;
75542;SDS011;64129;53.508;10.476;2023-09-08T06:46:14;9.20;;;8.30;;
75542;SDS011;64129;53.508;10.476;2023-09-08T06:48:41;11.95;;;9.05;;
75542;SDS011;64129;53.508;10.476;2023-09-08T06:51:08;10.40;;;8.63;;
75542;SDS011;64129;53.508;10.476;2023-09-08T06:53:36;10.05;;;8.70;;
75542;SDS011;64129;53.508;10.476;2023-09-08T06:56:03;9.30;;;8.30;;
75542;SDS011;64129;53.508;10.476;2023-09-08T06:58:31;8.98;;;8.07;;
75542;SDS011;64129;53.508;10.476;2023-09-08T07:00:58;9.05;;;8.10;;
75542;SDS011;64129;53.508;10.476;2023-09-08T07:03:28;9.02;;;8.10;;
75542;SDS011;64129;53.508;10.476;2023-09-08T07:05:58;9.55;;;8.15;;
75542;SDS011;64129;53.508;10.476;2023-09-08T07:08:25;8.70;;;7.63;;
75542;SDS011;64129;53.508;10.476;2023-09-08T07:10:52;9.35;;;8.27;;
75542;SDS011;64129;53.508;10.476;2023-09-08T07:13:20;9.27;;;8.27;;
75542;SDS011;64129;53.508;10.476;2023-09-08T07:15:47;9.48;;;7.70;;
75542;SDS011;64129;53.508;10.476;2023-09-08T07:18:14;12.07;;;7.75;;
75542;SDS011;64129;53.508;10.476;2023-09-08T07:20:45;8.88;;;7.97;;
75542;SDS011;64129;53.508;10.476;2023-09-08T07:23:16;11.00;;;7.70;;
75542;SDS011;64129;53.508;10.476;2023-09-08T07:25:45;9.68;;;8.57;;
75542;SDS011;64129;53.508;10.476;2023-09-08T07:28:17;8.40;;;7.57;;
75542;SDS011;64129;53.508;10.476;2023-09-08T07:30:44;9.50;;;8.13;;
75542;SDS011;64129;53.508;10.476;2023-09-08T07:33:12;9.35;;;8.38;;
75542;SDS011;64129;53.508;10.476;2023-09-08T07:35:39;9.02;;;8.10;;
75542;SDS011;64129;53.508;10.476;2023-09-08T07:38:06;8.70;;;7.80;;
75542;SDS011;64129;53.508;10.476;2023-09-08T07:40:34;9.73;;;8.23;;
75542;SDS011;64129;53.508;10.476;2023-09-08T07:43:01;8.30;;;7.18;;
75542;SDS011;64129;53.508;10.476;2023-09-08T07:45:28;11.88;;;8.20;;
75542;SDS011;64129;53.508;10.476;2023-09-08T07:47:55;8.75;;;7.85;;
75542;SDS011;64129;53.508;10.476;2023-09-08T07:50:23;8.45;;;7.63;;
75542;SDS011;64129;53.508;10.476;2023-09-08T07:52:52;8.05;;;7.13;;
75542;SDS011;64129;53.508;10.476;2023-09-08T07:55:21;8.52;;;7.65;;
75542;SDS011;64129;53.508;10.476;2023-09-08T07:57:50;10.32;;;7.35;;
75542;SDS011;64129;53.508;10.476;2023-09-08T08:00:17;9.00;;;7.10;;
75542;SDS011;64129;53.508;10.476;2023-09-08T08:02:48;7.97;;;7.18;;
75542;SDS011;64129;53.508;10.476;2023-09-08T08:05:16;8.13;;;7.32;;
75542;SDS011;64129;53.508;10.476;2023-09-08T08:07:43;8.18;;;7.03;;
75542;SDS011;64129;53.508;10.476;2023-09-08T08:10:11;7.43;;;6.70;;
75542;SDS011;64129;53.508;10.476;2023-09-08T08:12:39;7.93;;;7.03;;
75542;SDS011;64129;53.508;10.476;2023-09-08T08:15:07;8.43;;;7.00;;
75542;SDS011;64129;53.508;10.476;2023-09-08T08:17:38;8.60;;;6.97;;
75542;SDS011;64129;53.508;10.476;2023-09-08T08:20:06;9.25;;;6.78;;
75542;SDS011;64129;53.508;10.476;2023-09-08T08:22:36;7.85;;;7.03;;
75542;SDS011;64129;53.508;10.476;2023-09-08T08:25:03;8.57;;;6.63;;
75542;SDS011;64129;53.508;10.476;2023-09-08T08:27:31;7.10;;;6.25;;
75542;SDS011;64129;53.508;10.476;2023-09-08T08:29:58;7.35;;;6.65;;
75542;SDS011;64129;53.508;10.476;2023-09-08T08:32:29;7.07;;;6.25;;
75542;SDS011;64129;53.508;10.476;2023-09-08T08:34:56;8.20;;;6.55;;
75542;SDS011;64129;53.508;10.476;2023-09-08T08:37:23;7.78;;;6.97;;
75542;SDS011;64129;53.508;10.476;2023-09-08T08:39:51;7.35;;;6.55;;
75542;SDS011;64129;53.508;10.476;2023-09-08T08:42:17;8.27;;;6.68;;
75542;SDS011;64129;53.508;10.476;2023-09-08T08:44:48;7.63;;;5.95;;
75542;SDS011;64129;53.508;10.476;2023-09-08T08:47:16;8.20;;;6.05;;
75542;SDS011;64129;53.508;10.476;2023-09-08T08:49:43;7.32;;;6.03;;
75542;SDS011;64129;53.508;10.476;2023-09-08T08:52:14;6.78;;;5.72;;
75542;SDS011;64129;53.508;10.476;2023-09-08T08:54:41;7.38;;;6.30;;
75542;SDS011;64129;53.508;10.476;2023-09-08T08:57:09;6.55;;;5.95;;
75542;SDS011;64129;53.508;10.476;2023-09-08T08:59:37;6.65;;;6.05;;
75542;SDS011;64129;53.508;10.476;2023-09-08T09:02:04;6.43;;;5.75;;
75542;SDS011;64129;53.508;10.476;2023-09-08T09:04:31;6.47;;;5.88;;
75542;SDS011;64129;53.508;10.476;2023-09-08T09:09:26;7.47;;;5.88;;
75542;SDS011;64129;53.508;10.476;2023-09-08T09:11:53;6.47;;;5.82;;
75542;SDS011;64129;53.508;10.476;2023-09-08T09:14:20;8.50;;;5.60;;
75542;SDS011;64129;53.508;10.476;2023-09-08T09:16:49;7.22;;;5.60;;
75542;SDS011;64129;53.508;10.476;2023-09-08T09:19:20;5.90;;;5.32;;
75542;SDS011;64129;53.508;10.476;2023-09-08T09:21:54;6.75;;;5.50;;
75542;SDS011;64129;53.508;10.476;2023-09-08T09:24:36;7.63;;;5.63;;
75542;SDS011;64129;53.508;10.476;2023-09-08T09:27:10;6.15;;;5.43;;
75542;SDS011;64129;53.508;10.476;2023-09-08T09:29:44;5.35;;;4.90;;
75542;SDS011;64129;53.508;10.476;2023-09-08T09:32:15;6.40;;;5.80;;
75542;SDS011;64129;53.508;10.476;2023-09-08T09:34:50;5.90;;;5.35;;
75542;SDS011;64129;53.508;10.476;2023-09-08T09:37:23;6.05;;;5.43;;
75542;SDS011;64129;53.508;10.476;2023-09-08T09:39:50;5.57;;;5.07;;
75542;SDS011;64129;53.508;10.476;2023-09-08T09:42:18;6.53;;;5.47;;
75542;SDS011;64129;53.508;10.476;2023-09-08T09:44:49;6.47;;;5.20;;
75542;SDS011;64129;53.508;10.476;2023-09-08T09:47:18;6.43;;;5.00;;
75542;SDS011;64129;53.508;10.476;2023-09-08T09:49:46;5.72;;;4.68;;
75542;SDS011;64129;53.508;10.476;2023-09-08T09:52:19;6.43;;;5.68;;
75542;SDS011;64129;53.508;10.476;2023-09-08T09:54:49;6.07;;;5.40;;
75542;SDS011;64129;53.508;10.476;2023-09-08T09:57:20;6.43;;;5.28;;
75542;SDS011;64129;53.508;10.476;2023-09-08T09:59:48;13.15;;;5.38;;
75542;SDS011;64129;53.508;10.476;2023-09-08T10:02:17;5.72;;;5.10;;
75542;SDS011;64129;53.508;10.476;2023-09-08T10:04:48;5.82;;;5.30;;
75542;SDS011;64129;53.508;10.476;2023-09-08T10:07:16;6.93;;;5.05;;
75542;SDS011;64129;53.508;10.476;2023-09-08T10:09:44;5.90;;;4.95;;
75542;SDS011;64129;53.508;10.476;2023-09-08T10:12:12;6.20;;;5.20;;
75542;SDS011;64129;53.508;10.476;2023-09-08T10:14:44;5.95;;;5.45;;
75542;SDS011;64129;53.508;10.476;2023-09-08T10:17:18;6.97;;;5.72;;
75542;SDS011;64129;53.508;10.476;2023-09-08T10:19:51;7.15;;;5.20;;
75542;SDS011;64129;53.508;10.476;2023-09-08T10:22:21;5.82;;;5.32;;
75542;SDS011;64129;53.508;10.476;2023-09-08T10:24:53;5.47;;;4.97;;
75542;SDS011;64129;53.508;10.476;2023-09-08T10:27:22;6.03;;;4.85;;
75542;SDS011;64129;53.508;10.476;2023-09-08T10:29:50;7.53;;;4.97;;
75542;SDS011;64129;53.508;10.476;2023-09-08T10:32:18;5.25;;;4.85;;
75542;SDS011;64129;53.508;10.476;2023-09-08T10:34:47;5.25;;;4.75;;
75542;SDS011;64129;53.508;10.476;2023-09-08T10:37:19;5.38;;;4.93;;
75542;SDS011;64129;53.508;10.476;2023-09-08T10:39:47;6.70;;;5.88;;
75542;SDS011;64129;53.508;10.476;2023-09-08T10:44:44;5.78;;;5.07;;
75542;SDS011;64129;53.508;10.476;2023-09-08T10:47:23;5.18;;;4.50;;
75542;SDS011;64129;53.508;10.476;2023-09-08T10:49:51;6.18;;;5.05;;
75542;SDS011;64129;53.508;10.476;2023-09-08T10:52:23;5.57;;;5.18;;
75542;SDS011;64129;53.508;10.476;2023-09-08T10:54:51;4.93;;;4.40;;
75542;SDS011;64129;53.508;10.476;2023-09-08T10:57:23;5.57;;;4.35;;
75542;SDS011;64129;53.508;10.476;2023-09-08T10:59:55;4.88;;;4.40;;
75542;SDS011;64129;53.508;10.476;2023-09-08T11:02:36;5.93;;;4.50;;
75542;SDS011;64129;53.508;10.476;2023-09-08T11:05:10;5.00;;;4.38;;
75542;SDS011;64129;53.508;10.476;2023-09-08T11:07:40;4.97;;;4.45;;
75542;SDS011;64129;53.508;10.476;2023-09-08T11:10:08;4.82;;;4.43;;
75542;SDS011;64129;53.508;10.476;2023-09-08T11:12:36;6.60;;;4.95;;
75542;SDS011;64129;53.508;10.476;2023-09-08T11:15:04;6.38;;;4.70;;
75542;SDS011;64129;53.508;10.476;2023-09-08T11:17:34;5.28;;;4.78;;
75542;SDS011;64129;53.508;10.476;2023-09-08T11:20:05;4.70;;;4.30;;
75542;SDS011;64129;53.508;10.476;2023-09-08T11:22:36;5.50;;;4.60;;
75542;SDS011;64129;53.508;10.476;2023-09-08T11:25:07;4.70;;;4.07;;
75542;SDS011;64129;53.508;10.476;2023-09-08T11:27:37;5.40;;;4.90;;
75542;SDS011;64129;53.508;10.476;2023-09-08T11:30:06;5.25;;;4.60;;
75542;SDS011;64129;53.508;10.476;2023-09-08T11:32:35;4.93;;;4.45;;
75542;SDS011;64129;53.508;10.476;2023-09-08T11:35:05;4.53;;;3.92;;
75542;SDS011;64129;53.508;10.476;2023-09-08T11:37:35;6.22;;;4.32;;
75542;SDS011;64129;53.508;10.476;2023-09-08T11:40:08;4.60;;;4.18;;
75542;SDS011;64129;53.508;10.476;2023-09-08T11:42:42;4.68;;;4.05;;
75542;SDS011;64129;53.508;10.476;2023-09-08T11:45:11;5.22;;;3.85;;
75542;SDS011;64129;53.508;10.476;2023-09-08T11:47:44;4.47;;;4.03;;
75542;SDS011;64129;53.508;10.476;2023-09-08T11:50:11;5.85;;;4.00;;
75542;SDS011;64129;53.508;10.476;2023-09-08T11:52:45;5.20;;;4.63;;
75542;SDS011;64129;53.508;10.476;2023-09-08T11:55:14;4.30;;;3.90;;
75542;SDS011;64129;53.508;10.476;2023-09-08T11:57:42;6.15;;;4.00;;
75542;SDS011;64129;53.508;10.476;2023-09-08T12:00:11;4.82;;;4.18;;
75542;SDS011;64129;53.508;10.476;2023-09-08T12:02:44;5.50;;;3.90;;
75542;SDS011;64129;53.508;10.476;2023-09-08T12:05:22;4.65;;;4.13;;
75542;SDS011;64129;53.508;10.476;2023-09-08T12:07:54;5.00;;;4.47;;
75542;SDS011;64129;53.508;10.476;2023-09-08T12:10:23;4.38;;;3.97;;
75542;SDS011;64129;53.508;10.476;2023-09-08T12:12:52;5.00;;;4.18;;
75542;SDS011;64129;53.508;10.476;2023-09-08T12:15:36;4.43;;;4.05;;
75542;SDS011;64129;53.508;10.476;2023-09-08T12:18:05;4.50;;;4.10;;
75542;SDS011;64129;53.508;10.476;2023-09-08T12:20:34;5.35;;;4.22;;
75542;SDS011;64129;53.508;10.476;2023-09-08T12:23:04;5.07;;;4.20;;
75542;SDS011;64129;53.508;10.476;2023-09-08T12:25:34;4.38;;;3.92;;
75542;SDS011;64129;53.508;10.476;2023-09-08T12:28:11;6.38;;;4.20;;
75542;SDS011;64129;53.508;10.476;2023-09-08T12:30:38;5.32;;;4.82;;
75542;SDS011;64129;53.508;10.476;2023-09-08T12:33:05;4.32;;;3.92;;
75542;SDS011;64129;53.508;10.476;2023-09-08T12:35:34;4.25;;;3.85;;
75542;SDS011;64129;53.508;10.476;2023-09-08T12:38:01;4.97;;;4.47;;
75542;SDS011;64129;53.508;10.476;2023-09-08T12:40:33;4.85;;;4.45;;
75542;SDS011;64129;53.508;10.476;2023-09-08T12:43:02;4.90;;;4.50;;
75542;SDS011;64129;53.508;10.476;2023-09-08T12:45:30;4.93;;;4.13;;
75542;SDS011;64129;53.508;10.476;2023-09-08T12:47:58;4.32;;;3.92;;
75542;SDS011;64129;53.508;10.476;2023-09-08T12:50:26;4.20;;;3.75;;
75542;SDS011;64129;53.508;10.476;2023-09-08T12:52:53;4.47;;;4.03;;
75542;SDS011;64129;53.508;10.476;2023-09-08T12:57:46;4.10;;;3.70;;
75542;SDS011;64129;53.508;10.476;2023-09-08T13:00:14;4.75;;;3.47;;
75542;SDS011;64129;53.508;10.476;2023-09-08T13:02:41;4.75;;;4.35;;
75542;SDS011;64129;53.508;10.476;2023-09-08T13:05:08;4.57;;;4.18;;
75542;SDS011;64129;53.508;10.476;2023-09-08T13:07:35;4.40;;;4.00;;
75542;SDS011;64129;53.508;10.476;2023-09-08T13:10:02;4.32;;;3.92;;
75542;SDS011;64129;53.508;10.476;2023-09-08T13:12:29;4.20;;;3.83;;
75542;SDS011;64129;53.508;10.476;2023-09-08T13:14:57;4.63;;;4.15;;
75542;SDS011;64129;53.508;10.476;2023-09-08T13:17:24;4.20;;;3.78;;
75542;SDS011;64129;53.508;10.476;2023-09-08T13:19:51;4.53;;;4.13;;
75542;SDS011;64129;53.508;10.476;2023-09-08T13:22:19;4.22;;;3.83;;
75542;SDS011;64129;53.508;10.476;2023-09-08T13:24:46;4.63;;;4.22;;
75542;SDS011;64129;53.508;10.476;2023-09-08T13:27:13;4.90;;;4.00;;
75542;SDS011;64129;53.508;10.476;2023-09-08T13:29:41;3.88;;;3.50;;
75542;SDS011;64129;53.508;10.476;2023-09-08T13:32:08;5.28;;;3.92;;
75542;SDS011;64129;53.508;10.476;2023-09-08T13:34:35;4.40;;;4.03;;
75542;SDS011;64129;53.508;10.476;2023-09-08T13:37:02;4.38;;;3.97;;
75542;SDS011;64129;53.508;10.476;2023-09-08T13:39:29;5.47;;;4.30;;
75542;SDS011;64129;53.508;10.476;2023-09-08T13:41:56;4.18;;;3.80;;
75542;SDS011;64129;53.508;10.476;2023-09-08T13:44:25;4.53;;;4.13;;
75542;SDS011;64129;53.508;10.476;2023-09-08T13:46:53;4.78;;;3.80;;
75542;SDS011;64129;53.508;10.476;2023-09-08T13:49:21;4.18;;;3.78;;
75542;SDS011;64129;53.508;10.476;2023-09-08T13:51:52;4.25;;;3.85;;
75542;SDS011;64129;53.508;10.476;2023-09-08T13:54:22;4.32;;;3.58;;
75542;SDS011;64129;53.508;10.476;2023-09-08T13:56:57;3.40;;;3.10;;
75542;SDS011;64129;53.508;10.476;2023-09-08T13:59:27;4.13;;;3.70;;
75542;SDS011;64129;53.508;10.476;2023-09-08T14:01:55;4.05;;;3.65;;
75542;SDS011;64129;53.508;10.476;2023-09-08T14:04:37;3.75;;;3.45;;
75542;SDS011;64129;53.508;10.476;2023-09-08T14:07:07;4.10;;;3.58;;
75542;SDS011;64129;53.508;10.476;2023-09-08T14:09:39;4.72;;;3.40;;
75542;SDS011;64129;53.508;10.476;2023-09-08T14:12:08;4.13;;;3.83;;
75542;SDS011;64129;53.508;10.476;2023-09-08T14:14:38;4.00;;;3.70;;
75542;SDS011;64129;53.508;10.476;2023-09-08T14:17:05;3.78;;;3.47;;
75542;SDS011;64129;53.508;10.476;2023-09-08T14:19:32;3.78;;;3.20;;
75542;SDS011;64129;53.508;10.476;2023-09-08T14:21:59;4.47;;;3.63;;
75542;SDS011;64129;53.508;10.476;2023-09-08T14:24:25;4.28;;;3.88;;
75542;SDS011;64129;53.508;10.476;2023-09-08T14:26:52;4.47;;;4.07;;
75542;SDS011;64129;53.508;10.476;2023-09-08T14:29:21;4.25;;;3.85;;
75542;SDS011;64129;53.508;10.476;2023-09-08T14:31:49;4.07;;;3.70;;
75542;SDS011;64129;53.508;10.476;2023-09-08T14:34:16;4.90;;;3.42;;
75542;SDS011;64129;53.508;10.476;2023-09-08T14:36:43;3.72;;;3.42;;
75542;SDS011;64129;53.508;10.476;2023-09-08T14:39:10;3.88;;;3.50;;
75542;SDS011;64129;53.508;10.476;2023-09-08T14:41:37;5.18;;;4.35;;
75542;SDS011;64129;53.508;10.476;2023-09-08T14:44:04;4.75;;;4.35;;
75542;SDS011;64129;53.508;10.476;2023-09-08T14:46:31;5.10;;;3.70;;
75542;SDS011;64129;53.508;10.476;2023-09-08T14:48:57;4.25;;;3.85;;
75542;SDS011;64129;53.508;10.476;2023-09-08T14:51:24;4.97;;;3.80;;
75542;SDS011;64129;53.508;10.476;2023-09-08T14:56:18;6.10;;;4.05;;
75542;SDS011;64129;53.508;10.476;2023-09-08T14:58:45;4.30;;;3.83;;